Time;durP1;ratioP1;P1;durP2;ratioP2;P2;SDS_P1;SDS_P2;PMS_P1;PMS_P2;Temp;Humidity;BMP_temperature;BMP_pressure;BME280_temperature;BME280_humidity;BME280_pressure;Samples;Min_cycle;Max_cycle;Signal;HPM_P1;HPM_P2
2023/10/26 00:01:23;;;;;;;2.03;0.50;;;10.30;99.90;;;;;;4912156;28;20191;-67
2023/10/26 00:03:48;;;;;;;1.00;0.60;;;10.30;99.90;;;;;;4910953;28;20246;-65
2023/10/26 00:06:14;;;;;;;1.00;0.70;;;10.30;99.90;;;;;;4907503;28;20211;-67
2023/10/26 00:08:39;;;;;;;0.87;0.50;;;10.30;99.90;;;;;;4908442;28;20226;-67
2023/10/26 00:11:05;;;;;;;2.63;0.60;;;10.30;99.90;;;;;;4911703;28;20191;-67
2023/10/26 00:13:31;;;;;;;3.07;0.50;;;10.30;99.90;;;;;;4911172;28;20192;-67
2023/10/26 00:15:57;;;;;;;0.93;0.60;;;10.30;99.90;;;;;;4911581;28;20222;-66
2023/10/26 00:18:22;;;;;;;1.30;0.60;;;10.30;99.90;;;;;;4911732;28;20207;-67
2023/10/26 00:20:49;;;;;;;1.33;0.70;;;10.30;99.90;;;;;;4903913;28;20548;-68
2023/10/26 00:23:15;;;;;;;0.73;0.53;;;10.30;99.90;;;;;;4911150;28;20267;-67
2023/10/26 00:25:40;;;;;;;2.53;0.63;;;10.30;99.90;;;;;;4911708;28;20210;-67
2023/10/26 00:28:06;;;;;;;1.10;0.80;;;10.30;99.90;;;;;;4911374;28;20204;-67
2023/10/26 00:30:32;;;;;;;1.07;0.80;;;10.20;99.90;;;;;;4911546;28;20199;-67
2023/10/26 00:32:58;;;;;;;1.97;0.90;;;10.20;99.90;;;;;;4911273;28;20274;-67
2023/10/26 00:35:24;;;;;;;1.50;0.90;;;10.20;99.90;;;;;;4909791;28;20595;-66
2023/10/26 00:37:50;;;;;;;1.33;0.70;;;10.20;99.90;;;;;;4911385;28;20216;-66
2023/10/26 00:40:16;;;;;;;1.40;0.80;;;10.20;99.90;;;;;;4910208;28;20184;-67
2023/10/26 00:42:41;;;;;;;3.47;0.73;;;10.20;99.90;;;;;;4910700;28;20191;-67
2023/10/26 00:45:07;;;;;;;5.60;0.70;;;10.20;99.90;;;;;;4903260;28;20203;-67
2023/10/26 00:47:33;;;;;;;0.50;0.50;;;10.20;99.90;;;;;;4911393;28;20188;-67
2023/10/26 00:50:00;;;;;;;1.03;0.53;;;10.20;99.90;;;;;;4911505;28;20696;-66
2023/10/26 00:52:26;;;;;;;1.20;0.77;;;10.20;99.90;;;;;;4911527;28;20199;-67
2023/10/26 00:54:53;;;;;;;3.50;1.17;;;10.20;99.90;;;;;;4910667;28;20219;-67
2023/10/26 00:57:22;;;;;;;1.30;0.70;;;10.20;99.90;;;;;;4911573;28;20188;-66
2023/10/26 00:59:48;;;;;;;1.33;0.70;;;10.30;99.90;;;;;;4911227;28;20762;-67
2023/10/26 01:02:15;;;;;;;1.00;0.50;;;10.30;99.90;;;;;;4911352;28;20186;-67
2023/10/26 01:04:41;;;;;;;1.80;0.70;;;10.20;99.90;;;;;;4910689;28;20588;-67
2023/10/26 01:07:07;;;;;;;3.60;0.93;;;10.30;99.90;;;;;;4911382;28;20283;-67
2023/10/26 01:09:32;;;;;;;2.67;0.50;;;10.20;99.90;;;;;;4911274;28;20716;-68
2023/10/26 01:11:58;;;;;;;3.50;0.50;;;10.20;99.90;;;;;;4910429;28;20308;-66
2023/10/26 01:14:24;;;;;;;2.73;0.50;;;10.20;99.90;;;;;;4910411;28;20560;-66
2023/10/26 01:16:50;;;;;;;0.87;0.50;;;10.10;99.90;;;;;;4910285;28;20200;-67
2023/10/26 01:19:15;;;;;;;5.23;0.43;;;10.20;99.90;;;;;;4911270;28;20208;-67
2023/10/26 01:21:51;;;;;;;0.40;0.40;;;10.20;99.90;;;;;;4911032;28;20207;-67
2023/10/26 01:24:18;;;;;;;1.13;0.53;;;10.20;99.90;;;;;;4910538;28;20176;-67
2023/10/26 01:26:44;;;;;;;0.50;0.37;;;10.10;99.90;;;;;;4910997;28;20184;-67
2023/10/26 01:29:09;;;;;;;0.50;0.40;;;10.10;99.90;;;;;;4913860;28;20204;-67
2023/10/26 01:31:35;;;;;;;0.50;0.40;;;10.10;99.90;;;;;;4914643;28;20225;-66
2023/10/26 01:34:00;;;;;;;0.47;0.37;;;10.10;99.90;;;;;;4913838;28;20521;-66
2023/10/26 01:36:26;;;;;;;0.47;0.30;;;10.10;99.90;;;;;;4913001;28;20366;-66
2023/10/26 01:38:54;;;;;;;1.73;0.50;;;10.10;99.90;;;;;;4914169;28;20204;-67
2023/10/26 01:41:20;;;;;;;0.43;0.40;;;10.10;99.90;;;;;;4914393;28;20689;-66
2023/10/26 01:43:45;;;;;;;0.23;0.23;;;10.10;99.90;;;;;;4913532;28;20195;-67
2023/10/26 01:46:11;;;;;;;4.27;0.60;;;10.10;99.90;;;;;;4914365;28;20191;-66
2023/10/26 01:48:37;;;;;;;1.10;0.40;;;10.10;99.90;;;;;;4913823;28;20228;-66
2023/10/26 01:51:02;;;;;;;1.00;0.37;;;10.10;99.90;;;;;;4914034;28;20219;-66
2023/10/26 01:53:28;;;;;;;1.73;0.40;;;10.00;99.90;;;;;;4913402;28;20215;-66
2023/10/26 01:55:53;;;;;;;0.73;0.40;;;10.00;99.90;;;;;;4913807;28;20274;-67
2023/10/26 01:58:19;;;;;;;0.60;0.30;;;10.00;99.90;;;;;;4913762;28;20258;-66
2023/10/26 02:00:45;;;;;;;1.43;0.50;;;10.00;99.90;;;;;;4913965;28;20180;-67
2023/10/26 02:03:10;;;;;;;1.23;0.40;;;10.00;99.90;;;;;;4913172;28;20673;-67
2023/10/26 02:05:36;;;;;;;0.67;0.40;;;10.00;99.90;;;;;;4913866;28;20206;-66
2023/10/26 02:08:01;;;;;;;1.57;0.40;;;10.00;99.90;;;;;;4913606;28;20218;-66
2023/10/26 02:10:30;;;;;;;1.63;0.70;;;10.00;99.90;;;;;;4913893;28;20196;-66
2023/10/26 02:12:56;;;;;;;0.70;0.57;;;10.00;99.90;;;;;;4913463;28;20195;-67
2023/10/26 02:15:22;;;;;;;0.63;0.50;;;10.00;99.90;;;;;;4911695;28;20239;-67
2023/10/26 02:17:47;;;;;;;1.30;0.70;;;10.10;99.90;;;;;;4913373;28;20238;-66
2023/10/26 02:20:13;;;;;;;1.47;0.90;;;10.00;99.90;;;;;;4913730;28;20180;-66
2023/10/26 02:22:39;;;;;;;3.30;0.97;;;10.00;99.90;;;;;;4913661;28;20184;-66
2023/10/26 02:25:05;;;;;;;1.60;1.10;;;9.90;99.90;;;;;;4912940;28;20184;-67
2023/10/26 02:27:31;;;;;;;1.80;1.20;;;9.90;99.90;;;;;;4913466;28;20398;-67
2023/10/26 02:29:57;;;;;;;2.57;1.40;;;9.90;99.90;;;;;;4913356;28;20214;-65
2023/10/26 02:32:23;;;;;;;2.20;1.27;;;10.00;99.90;;;;;;4913355;28;20188;-67
2023/10/26 02:34:48;;;;;;;4.57;1.67;;;9.90;99.90;;;;;;4912753;28;20277;-66
2023/10/26 02:37:14;;;;;;;4.03;1.70;;;9.90;99.90;;;;;;4913359;28;20172;-66
2023/10/26 02:39:40;;;;;;;4.17;1.70;;;9.90;99.90;;;;;;4913488;28;20576;-67
2023/10/26 02:42:05;;;;;;;2.10;1.40;;;9.90;99.90;;;;;;4913621;28;20275;-66
2023/10/26 02:44:31;;;;;;;2.47;1.40;;;9.90;99.90;;;;;;4912815;28;20653;-66
2023/10/26 02:46:57;;;;;;;1.53;1.40;;;9.90;99.90;;;;;;4913193;28;20218;-68
2023/10/26 02:49:22;;;;;;;2.03;1.43;;;9.90;99.90;;;;;;4913176;28;20251;-67
2023/10/26 02:51:48;;;;;;;3.00;1.50;;;9.90;99.90;;;;;;4911794;28;20267;-67
2023/10/26 02:54:14;;;;;;;2.50;1.63;;;9.90;99.90;;;;;;4912429;28;20187;-66
2023/10/26 02:56:40;;;;;;;2.30;1.50;;;9.90;99.90;;;;;;4913248;28;20210;-67
2023/10/26 02:59:06;;;;;;;2.20;1.37;;;9.90;99.90;;;;;;4913028;28;20192;-67
2023/10/26 03:01:33;;;;;;;3.27;1.90;;;9.90;99.90;;;;;;4897761;28;20208;-67
2023/10/26 03:04:01;;;;;;;3.60;2.03;;;9.90;99.90;;;;;;4910954;28;20192;-67
2023/10/26 03:06:27;;;;;;;4.37;2.10;;;9.80;99.90;;;;;;4912927;28;20266;-67
2023/10/26 03:08:52;;;;;;;2.63;1.90;;;9.90;99.90;;;;;;4912724;28;20602;-65
2023/10/26 03:11:18;;;;;;;4.67;1.60;;;9.80;99.90;;;;;;4912822;28;20188;-66
2023/10/26 03:13:43;;;;;;;2.77;1.90;;;9.80;99.90;;;;;;4912275;28;20196;-66
2023/10/26 03:16:09;;;;;;;3.33;1.97;;;9.80;99.90;;;;;;4912724;28;20732;-66
2023/10/26 03:18:36;;;;;;;4.93;2.37;;;9.80;99.90;;;;;;4912580;28;20207;-67
2023/10/26 03:21:02;;;;;;;5.13;2.33;;;9.80;99.90;;;;;;4911330;28;20752;-66
2023/10/26 03:23:27;;;;;;;3.77;2.40;;;9.80;99.90;;;;;;4912167;28;20322;-67
2023/10/26 03:25:53;;;;;;;5.20;3.40;;;9.70;99.90;;;;;;4912675;28;20195;-67
2023/10/26 03:28:18;;;;;;;4.20;2.80;;;9.80;99.90;;;;;;4912534;28;20298;-67
2023/10/26 03:30:44;;;;;;;6.97;3.33;;;9.70;99.90;;;;;;4912477;28;20227;-66
2023/10/26 03:33:10;;;;;;;9.27;3.50;;;9.80;99.90;;;;;;4911230;28;20226;-66
2023/10/26 03:35:35;;;;;;;5.77;3.40;;;9.80;99.90;;;;;;4912340;28;20235;-66
2023/10/26 03:38:01;;;;;;;5.37;3.23;;;9.70;99.90;;;;;;4912311;28;20211;-67
2023/10/26 03:40:27;;;;;;;6.73;3.23;;;9.70;99.90;;;;;;4912531;28;20221;-67
2023/10/26 03:42:52;;;;;;;4.97;3.00;;;9.70;99.90;;;;;;4912241;28;20295;-67
2023/10/26 03:45:18;;;;;;;6.33;3.63;;;9.70;99.90;;;;;;4911969;28;20266;-67
2023/10/26 03:47:44;;;;;;;6.47;3.33;;;9.70;99.90;;;;;;4912017;28;20207;-67
2023/10/26 03:50:09;;;;;;;7.53;3.50;;;9.70;99.90;;;;;;4911686;28;20212;-67
2023/10/26 03:52:35;;;;;;;4.07;2.70;;;9.70;99.90;;;;;;4912161;28;20633;-66
2023/10/26 03:55:01;;;;;;;7.70;2.80;;;9.60;99.90;;;;;;4911347;28;20226;-67
2023/10/26 03:57:26;;;;;;;4.90;2.50;;;9.70;99.90;;;;;;4912229;28;20187;-67
2023/10/26 03:59:52;;;;;;;5.47;2.87;;;9.70;99.90;;;;;;4912151;28;20291;-66
2023/10/26 04:02:17;;;;;;;3.73;2.57;;;9.70;99.90;;;;;;4911969;28;20689;-66
2023/10/26 04:04:43;;;;;;;4.00;2.20;;;9.70;99.90;;;;;;4911436;28;20649;-66
2023/10/26 04:07:09;;;;;;;3.23;2.23;;;9.70;99.90;;;;;;4911926;28;20234;-66
2023/10/26 04:09:34;;;;;;;5.37;2.27;;;9.70;99.90;;;;;;4911978;28;20791;-66
2023/10/26 04:12:00;;;;;;;2.67;2.00;;;9.70;99.90;;;;;;4911826;28;20192;-67
2023/10/26 04:14:26;;;;;;;8.73;2.50;;;9.70;99.90;;;;;;4911161;28;20271;-66
2023/10/26 04:16:52;;;;;;;3.57;2.67;;;9.80;99.90;;;;;;4911616;28;20184;-66
2023/10/26 04:19:17;;;;;;;4.27;2.77;;;9.70;99.90;;;;;;4911708;28;20279;-65
2023/10/26 04:21:43;;;;;;;4.13;2.87;;;9.70;99.90;;;;;;4911884;28;20187;-67
2023/10/26 04:24:09;;;;;;;5.27;3.27;;;9.70;99.90;;;;;;4910932;28;20187;-66
2023/10/26 04:26:34;;;;;;;5.00;3.30;;;9.70;99.90;;;;;;4911882;28;20219;-67
2023/10/26 04:29:00;;;;;;;8.87;3.67;;;9.70;99.90;;;;;;4911554;28;20261;-66
2023/10/26 04:31:26;;;;;;;6.93;3.30;;;9.70;99.90;;;;;;4911741;28;20183;-66
2023/10/26 04:33:51;;;;;;;4.97;3.40;;;9.70;99.90;;;;;;4910821;28;20188;-66
2023/10/26 04:36:19;;;;;;;5.90;2.87;;;9.70;99.90;;;;;;4911621;28;20720;-66
2023/10/26 04:38:44;;;;;;;4.67;3.13;;;9.70;99.90;;;;;;4911495;28;20298;-65
2023/10/26 04:41:10;;;;;;;5.13;2.80;;;9.70;99.90;;;;;;4911690;28;20322;-66
2023/10/26 04:43:35;;;;;;;3.93;2.73;;;9.70;99.90;;;;;;4910897;28;20191;-66
2023/10/26 04:46:01;;;;;;;4.30;3.10;;;9.70;99.90;;;;;;4911452;28;20188;-66
2023/10/26 04:48:26;;;;;;;5.57;3.67;;;9.70;99.90;;;;;;4911046;28;20250;-66
2023/10/26 04:50:52;;;;;;;4.80;3.60;;;9.70;99.90;;;;;;4911421;28;20191;-66
2023/10/26 04:53:18;;;;;;;7.70;3.67;;;9.70;99.90;;;;;;4910723;28;20192;-66
2023/10/26 04:55:43;;;;;;;5.77;3.10;;;9.70;99.90;;;;;;4911377;28;20230;-65
2023/10/26 04:58:09;;;;;;;7.93;3.50;;;9.70;99.90;;;;;;4911430;28;20208;-65
2023/10/26 05:00:35;;;;;;;6.10;4.00;;;9.60;99.90;;;;;;4911417;28;20692;-67
2023/10/26 05:03:01;;;;;;;6.43;3.80;;;9.70;99.90;;;;;;4911750;28;20194;-67
2023/10/26 05:05:26;;;;;;;7.70;4.63;;;9.60;99.90;;;;;;4914647;28;20184;-66
2023/10/26 05:07:52;;;;;;;7.87;4.37;;;9.60;99.90;;;;;;4914586;28;20235;-65
2023/10/26 05:10:18;;;;;;;9.13;5.00;;;9.60;99.90;;;;;;4914562;28;20191;-65
2023/10/26 05:12:44;;;;;;;9.50;5.43;;;9.60;99.90;;;;;;4914606;28;20200;-67
2023/10/26 05:15:09;;;;;;;8.83;4.97;;;9.60;99.90;;;;;;4913899;28;20212;-66
2023/10/26 05:17:36;;;;;;;9.07;5.57;;;9.60;99.90;;;;;;4914299;28;20554;-67
2023/10/26 05:20:03;;;;;;;10.43;5.77;;;9.60;99.90;;;;;;4914459;28;20191;-66
2023/10/26 05:22:29;;;;;;;10.50;5.10;;;9.60;99.90;;;;;;4914402;28;20209;-67
2023/10/26 05:24:54;;;;;;;9.00;5.30;;;9.60;99.90;;;;;;4913738;28;20219;-66
2023/10/26 05:27:20;;;;;;;10.73;5.10;;;9.60;99.90;;;;;;4914325;28;20187;-67
2023/10/26 05:29:46;;;;;;;9.50;5.83;;;9.60;99.90;;;;;;4914115;28;20208;-65
2023/10/26 05:32:11;;;;;;;9.90;5.80;;;9.60;99.90;;;;;;4914019;28;20210;-66
2023/10/26 05:34:37;;;;;;;9.63;6.00;;;9.60;99.90;;;;;;4913516;28;20276;-66
2023/10/26 05:37:02;;;;;;;7.37;4.67;;;9.60;99.90;;;;;;4914247;28;20184;-67
2023/10/26 05:39:28;;;;;;;10.27;4.87;;;9.70;99.90;;;;;;4914215;28;20275;-67
2023/10/26 05:41:53;;;;;;;8.07;4.87;;;9.70;99.90;;;;;;4914110;28;20680;-67
2023/10/26 05:44:19;;;;;;;9.53;4.73;;;9.70;99.90;;;;;;4913550;28;20188;-66
2023/10/26 05:46:44;;;;;;;6.67;4.03;;;9.70;99.90;;;;;;4914076;28;20675;-67
2023/10/26 05:49:10;;;;;;;10.03;4.37;;;9.70;99.90;;;;;;4913659;28;20220;-68
2023/10/26 05:51:36;;;;;;;7.67;3.87;;;9.70;99.90;;;;;;4913989;28;20192;-65
2023/10/26 05:54:01;;;;;;;6.53;3.67;;;9.70;99.90;;;;;;4913289;28;20188;-67
2023/10/26 05:56:27;;;;;;;6.43;3.37;;;9.60;99.90;;;;;;4913878;28;20227;-67
2023/10/26 05:58:52;;;;;;;4.80;3.30;;;9.70;99.90;;;;;;4913841;28;20207;-67
2023/10/26 06:01:18;;;;;;;7.30;4.70;;;9.70;99.90;;;;;;4913914;28;20180;-67
2023/10/26 06:03:44;;;;;;;7.13;4.17;;;9.70;99.90;;;;;;4912979;28;20672;-66
2023/10/26 06:06:10;;;;;;;6.50;4.53;;;9.70;99.90;;;;;;4913647;28;20191;-66
2023/10/26 06:08:36;;;;;;;6.83;4.23;;;9.70;99.90;;;;;;4913767;28;20212;-66
2023/10/26 06:11:02;;;;;;;9.27;5.10;;;9.60;99.90;;;;;;4913738;28;20180;-66
2023/10/26 06:13:28;;;;;;;8.70;5.20;;;9.50;99.90;;;;;;4912744;28;20262;-66
2023/10/26 06:15:53;;;;;;;10.03;5.77;;;9.60;99.90;;;;;;4913663;28;20215;-65
2023/10/26 06:18:19;;;;;;;9.20;5.23;;;9.50;99.90;;;;;;4914552;28;20310;-68
2023/10/26 06:20:57;;;;;;;10.57;5.73;;;9.50;99.90;;;;;;4913565;28;20192;-68
2023/10/26 06:23:22;;;;;;;11.93;6.03;;;9.60;99.90;;;;;;4912806;28;20176;-68
2023/10/26 06:25:48;;;;;;;10.97;6.47;;;9.60;99.90;;;;;;4911196;28;20564;-67
2023/10/26 06:28:13;;;;;;;10.70;6.67;;;9.60;99.90;;;;;;4912425;28;20208;-68
2023/10/26 06:30:39;;;;;;;11.43;6.40;;;9.60;99.90;;;;;;4912710;28;20188;-68
2023/10/26 06:33:05;;;;;;;12.90;7.37;;;9.70;99.90;;;;;;4912093;28;20172;-68
2023/10/26 06:35:30;;;;;;;11.23;6.40;;;9.70;99.90;;;;;;4912678;28;20207;-68
2023/10/26 06:37:56;;;;;;;15.47;8.60;;;9.70;99.90;;;;;;4912415;28;20712;-68
2023/10/26 06:40:21;;;;;;;11.50;7.27;;;9.70;99.90;;;;;;4912523;28;20279;-68
2023/10/26 06:42:47;;;;;;;12.80;7.83;;;9.70;99.90;;;;;;4912571;28;20184;-65
2023/10/26 06:45:12;;;;;;;16.23;8.67;;;9.70;99.90;;;;;;4912125;28;20264;-67
2023/10/26 06:47:39;;;;;;;15.97;8.60;;;9.80;99.90;;;;;;4912176;28;20706;-68
2023/10/26 06:50:06;;;;;;;14.17;8.27;;;9.80;99.90;;;;;;4912240;28;20196;-68
2023/10/26 06:52:31;;;;;;;12.97;7.93;;;9.80;99.90;;;;;;4912317;28;20265;-68
2023/10/26 06:54:58;;;;;;;14.87;8.03;;;9.80;99.90;;;;;;4910242;28;20295;-68
2023/10/26 06:57:24;;;;;;;13.17;8.33;;;9.80;99.90;;;;;;4906695;28;20184;-68
2023/10/26 06:59:49;;;;;;;15.20;9.17;;;9.80;99.90;;;;;;4912005;28;20218;-68
2023/10/26 07:02:15;;;;;;;14.70;9.00;;;9.80;99.90;;;;;;4912272;28;20704;-68
2023/10/26 07:04:40;;;;;;;15.13;8.80;;;9.90;99.90;;;;;;4911803;28;20187;-68
2023/10/26 07:07:07;;;;;;;18.57;9.77;;;9.90;99.90;;;;;;4912226;28;20188;-66
2023/10/26 07:09:33;;;;;;;16.50;9.90;;;9.90;99.90;;;;;;4910799;28;20200;-68
2023/10/26 07:11:59;;;;;;;15.57;9.83;;;10.00;99.90;;;;;;4904317;28;20188;-68
2023/10/26 07:14:25;;;;;;;17.97;9.57;;;9.90;99.90;;;;;;4910106;28;20180;-68
2023/10/26 07:16:51;;;;;;;16.43;9.87;;;10.00;99.90;;;;;;4911869;28;20192;-68
2023/10/26 07:19:17;;;;;;;19.60;10.13;;;10.00;99.90;;;;;;4911814;28;20219;-67
2023/10/26 07:21:44;;;;;;;17.50;9.20;;;9.90;99.90;;;;;;4911429;28;20188;-66
2023/10/26 07:24:10;;;;;;;19.90;9.93;;;9.90;99.90;;;;;;4944443;28;20429;-67
2023/10/26 07:26:35;;;;;;;16.97;9.20;;;9.90;99.90;;;;;;4911159;28;20196;-66
2023/10/26 07:29:01;;;;;;;14.07;8.33;;;10.00;99.90;;;;;;4911608;28;20238;-68
2023/10/26 07:31:27;;;;;;;18.70;9.27;;;10.00;99.90;;;;;;4906727;28;20188;-67
2023/10/26 07:33:52;;;;;;;17.97;9.50;;;10.00;99.90;;;;;;4900835;28;20538;-67
2023/10/26 07:36:18;;;;;;;17.03;8.43;;;10.00;99.90;;;;;;4907917;28;20228;-68
2023/10/26 07:38:44;;;;;;;19.37;8.10;;;10.00;99.90;;;;;;4908333;28;20632;-68
2023/10/26 07:41:10;;;;;;;11.23;6.80;;;10.00;99.90;;;;;;4911741;28;20280;-68
2023/10/26 07:43:35;;;;;;;13.83;7.20;;;10.10;99.90;;;;;;4911025;28;20176;-68
2023/10/26 07:46:01;;;;;;;13.03;7.23;;;10.10;99.90;;;;;;4911516;28;20191;-68
2023/10/26 07:48:27;;;;;;;12.67;7.57;;;10.20;99.90;;;;;;4911277;28;20231;-67
2023/10/26 07:50:53;;;;;;;13.30;7.50;;;10.30;99.90;;;;;;4911557;28;20354;-67
2023/10/26 07:53:18;;;;;;;13.03;7.80;;;10.30;99.90;;;;;;4910990;28;20784;-67
2023/10/26 07:55:44;;;;;;;14.67;7.70;;;10.40;99.90;;;;;;4911402;28;20203;-68
2023/10/26 07:58:10;;;;;;;14.57;8.33;;;10.50;99.90;;;;;;4911178;28;20282;-68
2023/10/26 08:00:39;;;;;;;12.53;7.67;;;10.50;99.90;;;;;;4910247;28;20188;-67
2023/10/26 08:03:04;;;;;;;14.33;7.67;;;10.50;99.90;;;;;;4905317;28;20184;-67
2023/10/26 08:05:30;;;;;;;10.80;6.43;;;10.70;99.90;;;;;;4911363;28;20661;-65
2023/10/26 08:07:56;;;;;;;11.87;6.93;;;10.70;99.90;;;;;;4910029;28;20319;-66
2023/10/26 08:10:23;;;;;;;13.00;6.93;;;10.80;99.90;;;;;;4911298;28;20188;-65
2023/10/26 08:12:52;;;;;;;12.07;7.00;;;10.90;99.90;;;;;;4910833;28;20192;-65
2023/10/26 08:15:18;;;;;;;10.50;6.90;;;11.00;99.90;;;;;;4906303;28;20209;-66
2023/10/26 08:17:44;;;;;;;11.50;7.60;;;11.20;99.90;;;;;;4905461;28;20562;-65
2023/10/26 08:20:10;;;;;;;12.07;6.93;;;11.20;99.90;;;;;;4909483;28;20188;-65
2023/10/26 08:22:35;;;;;;;11.30;6.97;;;11.20;99.90;;;;;;4910275;28;20195;-67
2023/10/26 08:25:05;;;;;;;11.50;7.20;;;11.20;99.90;;;;;;4909616;28;20699;-66
2023/10/26 08:27:35;;;;;;;13.03;7.80;;;11.10;99.90;;;;;;4910013;28;20200;-65
2023/10/26 08:30:02;;;;;;;12.03;6.83;;;11.20;99.90;;;;;;4910167;28;20270;-66
2023/10/26 08:32:28;;;;;;;11.13;6.27;;;11.20;99.90;;;;;;4911102;28;20191;-66
2023/10/26 08:34:53;;;;;;;10.63;6.93;;;11.20;99.90;;;;;;4902342;28;20279;-65
2023/10/26 08:37:19;;;;;;;11.87;6.93;;;11.20;99.90;;;;;;4910775;28;20180;-66
2023/10/26 08:39:44;;;;;;;12.17;7.47;;;11.20;99.90;;;;;;4910854;28;20236;-66
2023/10/26 08:42:10;;;;;;;13.07;7.57;;;11.20;99.90;;;;;;4910673;28;20679;-66
2023/10/26 08:44:37;;;;;;;11.30;6.63;;;11.20;99.90;;;;;;4910232;28;20267;-66
2023/10/26 08:47:04;;;;;;;11.37;6.47;;;11.30;99.90;;;;;;4941516;28;20191;-66
2023/10/26 08:49:31;;;;;;;13.73;7.50;;;11.50;99.90;;;;;;4898664;28;20438;-70
2023/10/26 08:51:57;;;;;;;10.80;6.37;;;11.50;99.90;;;;;;4903026;28;20338;-68
2023/10/26 08:54:25;;;;;;;9.57;6.10;;;11.60;99.90;;;;;;4902267;28;20176;-67
2023/10/26 08:56:50;;;;;;;9.47;5.90;;;11.70;99.90;;;;;;4910680;28;20199;-68
2023/10/26 08:59:16;;;;;;;11.13;7.00;;;11.60;99.90;;;;;;4910805;28;20244;-67
2023/10/26 09:01:48;;;;;;;10.30;6.40;;;11.60;99.90;;;;;;4910564;28;20696;-67
2023/10/26 09:04:14;;;;;;;14.57;7.87;;;11.60;99.90;;;;;;4898782;28;20180;-66
2023/10/26 09:06:52;;;;;;;10.20;6.50;;;11.50;99.90;;;;;;4906202;28;20334;-67
2023/10/26 09:09:18;;;;;;;10.67;6.40;;;11.50;99.90;;;;;;4910265;28;20252;-67
2023/10/26 09:11:46;;;;;;;11.33;6.70;;;11.40;99.90;;;;;;4910470;28;20191;-67
2023/10/26 09:14:15;;;;;;;11.83;6.73;;;11.40;99.90;;;;;;4942662;28;20207;-67
2023/10/26 09:16:43;;;;;;;11.17;6.90;;;11.40;99.90;;;;;;4910112;28;20302;-67
2023/10/26 09:19:10;;;;;;;13.70;6.30;;;11.50;99.90;;;;;;4910084;28;20204;-66
2023/10/26 09:21:53;;;;;;;10.83;6.53;;;11.50;99.90;;;;;;4910368;28;20206;-66
2023/10/26 09:24:27;;;;;;;12.63;7.30;;;11.50;99.90;;;;;;4910055;28;20214;-66
2023/10/26 09:26:54;;;;;;;19.10;6.73;;;11.50;99.90;;;;;;4908957;28;20602;-66
2023/10/26 09:29:21;;;;;;;9.43;6.43;;;11.40;99.90;;;;;;4909564;28;20642;-67
2023/10/26 09:31:54;;;;;;;10.70;6.07;;;11.30;99.90;;;;;;4909404;28;20176;-67
2023/10/26 09:34:24;;;;;;;11.97;6.50;;;11.40;99.90;;;;;;4909416;28;20668;-67
2023/10/26 09:37:04;;;;;;;10.43;6.47;;;11.40;99.90;;;;;;4908747;28;20427;-65
2023/10/26 09:39:32;;;;;;;10.67;7.17;;;11.30;99.90;;;;;;4910043;28;20208;-65
2023/10/26 09:42:00;;;;;;;13.20;7.90;;;11.30;99.90;;;;;;4910258;28;20242;-66
2023/10/26 09:44:26;;;;;;;12.63;7.63;;;11.40;99.90;;;;;;4909476;28;20186;-66
2023/10/26 09:46:52;;;;;;;11.97;7.70;;;11.40;99.90;;;;;;4910088;28;20220;-66
2023/10/26 09:49:17;;;;;;;11.03;6.13;;;11.50;99.90;;;;;;4911408;28;20255;-65
2023/10/26 09:51:46;;;;;;;14.10;7.30;;;11.50;99.90;;;;;;4913570;28;20199;-66
2023/10/26 09:54:13;;;;;;;9.90;6.70;;;11.30;99.90;;;;;;4912577;28;20255;-66
2023/10/26 09:56:43;;;;;;;13.70;7.20;;;11.40;99.90;;;;;;4897473;28;20212;-66
2023/10/26 09:59:10;;;;;;;10.43;6.90;;;11.50;99.90;;;;;;4912547;28;20216;-65
2023/10/26 10:01:37;;;;;;;8.60;5.90;;;11.60;99.90;;;;;;4913253;28;20700;-65
2023/10/26 10:04:08;;;;;;;9.33;5.70;;;11.70;99.90;;;;;;4912539;28;20200;-65
2023/10/26 10:06:50;;;;;;;8.97;5.70;;;11.80;99.90;;;;;;4913284;28;20226;-65
2023/10/26 10:09:18;;;;;;;8.03;5.37;;;11.80;99.90;;;;;;4913038;28;20196;-66
2023/10/26 10:11:45;;;;;;;10.10;6.47;;;11.80;99.90;;;;;;4913378;28;20195;-66
2023/10/26 10:14:49;;;;;;;7.70;5.17;;;11.80;99.90;;;;;;4912767;28;20198;-65
2023/10/26 10:17:15;;;;;;;8.17;5.40;;;11.80;99.90;;;;;;4905317;28;20187;-66
2023/10/26 10:19:43;;;;;;;10.00;5.83;;;11.80;99.90;;;;;;4913118;28;20247;-65
2023/10/26 10:22:43;;;;;;;7.90;5.30;;;11.70;99.90;;;;;;4912942;28;20304;-65
2023/10/26 10:25:10;;;;;;;7.67;4.90;;;11.70;99.90;;;;;;4963287;28;20314;-66
2023/10/26 10:27:36;;;;;;;14.20;5.80;;;11.70;99.90;;;;;;4912936;28;20180;-65
2023/10/26 10:30:08;;;;;;;9.33;5.87;;;11.60;99.90;;;;;;4912818;28;20278;-67
2023/10/26 10:32:46;;;;;;;11.93;6.57;;;11.60;99.90;;;;;;4911486;28;20191;-67
2023/10/26 10:35:25;;;;;;;10.90;7.13;;;11.50;99.90;;;;;;4910654;28;20765;-67
2023/10/26 10:38:17;;;;;;;12.30;6.10;;;11.50;99.90;;;;;;4911331;28;20282;-66
2023/10/26 10:41:09;;;;;;;9.27;5.37;;;11.50;99.90;;;;;;4912334;28;20180;-67
2023/10/26 10:43:37;;;;;;;13.40;7.67;;;11.40;99.90;;;;;;4915608;28;20207;-67
2023/10/26 10:46:20;;;;;;;15.13;9.10;;;11.40;99.90;;;;;;4912580;28;20204;-68
2023/10/26 10:49:05;;;;;;;13.43;8.27;;;11.40;99.90;;;;;;4912272;28;20216;-67
2023/10/26 10:51:41;;;;;;;10.37;6.70;;;11.50;99.90;;;;;;4912691;28;20725;-67
2023/10/26 10:54:12;;;;;;;11.73;7.47;;;11.60;99.90;;;;;;4911952;28;20207;-66
2023/10/26 10:56:39;;;;;;;13.90;8.20;;;11.70;99.90;;;;;;4912472;28;20243;-67
2023/10/26 10:59:16;;;;;;;13.57;7.93;;;11.80;99.90;;;;;;4912287;28;20214;-66
2023/10/26 11:01:42;;;;;;;15.80;7.77;;;11.90;99.90;;;;;;4911460;28;20612;-67
2023/10/26 11:04:10;;;;;;;14.73;7.70;;;12.00;99.90;;;;;;4911466;28;20283;-67
2023/10/26 11:06:46;;;;;;;14.90;8.90;;;12.10;99.90;;;;;;4912481;28;20203;-68
2023/10/26 11:09:41;;;;;;;14.47;8.67;;;12.20;99.90;;;;;;4912160;28;20258;-67
2023/10/26 11:12:11;;;;;;;13.57;8.70;;;12.30;99.90;;;;;;4932289;28;20210;-66
2023/10/26 11:14:57;;;;;;;13.73;8.37;;;12.40;99.90;;;;;;4911375;28;20693;-66
2023/10/26 11:17:24;;;;;;;11.93;7.60;;;12.50;99.90;;;;;;4912552;28;20188;-67
2023/10/26 11:19:51;;;;;;;12.33;7.80;;;12.50;99.90;;;;;;4911756;28;20262;-65
2023/10/26 11:22:18;;;;;;;14.83;9.37;;;12.40;99.90;;;;;;4911999;28;20180;-67
2023/10/26 11:24:44;;;;;;;12.53;8.20;;;12.50;99.90;;;;;;4910461;28;20226;-65
2023/10/26 11:27:15;;;;;;;11.60;7.20;;;12.60;99.90;;;;;;4911885;28;20192;-66
2023/10/26 11:29:42;;;;;;;11.63;7.97;;;12.40;99.90;;;;;;4911826;28;20692;-66
2023/10/26 11:32:18;;;;;;;11.20;7.43;;;12.50;99.90;;;;;;4911912;28;20210;-66
2023/10/26 11:35:11;;;;;;;10.93;7.53;;;12.60;99.90;;;;;;4911062;28;20656;-66
2023/10/26 11:37:40;;;;;;;11.30;7.60;;;12.80;99.90;;;;;;4921130;28;20565;-65
2023/10/26 11:40:07;;;;;;;10.17;6.33;;;12.80;99.90;;;;;;4910715;28;20195;-65
2023/10/26 11:42:56;;;;;;;13.13;6.80;;;12.90;99.90;;;;;;4911950;28;20230;-67
2023/10/26 11:45:25;;;;;;;8.97;6.10;;;12.90;99.90;;;;;;4904296;28;20253;-66
2023/10/26 11:47:59;;;;;;;13.40;6.03;;;12.80;99.90;;;;;;4911307;28;20716;-67
2023/10/26 11:50:32;;;;;;;8.83;5.53;;;12.80;99.90;;;;;;4910950;28;20188;-67
2023/10/26 11:53:00;;;;;;;9.00;6.20;;;12.70;99.90;;;;;;4910556;28;20188;-66
2023/10/26 11:55:28;;;;;;;10.73;6.50;;;12.70;99.90;;;;;;4910616;28;20215;-66
2023/10/26 11:57:57;;;;;;;11.10;5.97;;;12.70;99.90;;;;;;4910292;28;20711;-66
2023/10/26 12:00:23;;;;;;;10.00;6.57;;;12.70;99.90;;;;;;4910479;28;20207;-67
2023/10/26 12:02:49;;;;;;;10.70;6.43;;;12.70;99.90;;;;;;4910551;28;20275;-67
2023/10/26 12:05:18;;;;;;;10.90;6.10;;;12.80;99.90;;;;;;4902385;28;20180;-67
2023/10/26 12:07:44;;;;;;;9.93;7.20;;;12.80;99.90;;;;;;4910207;28;20278;-66
2023/10/26 12:10:10;;;;;;;10.03;6.40;;;12.80;99.90;;;;;;4909992;28;20200;-66
2023/10/26 12:12:35;;;;;;;11.00;7.40;;;12.80;99.90;;;;;;4909792;28;20290;-67
2023/10/26 12:15:01;;;;;;;10.43;6.37;;;12.90;99.90;;;;;;4909371;28;20222;-67
2023/10/26 12:17:26;;;;;;;9.73;6.23;;;12.80;99.90;;;;;;4910507;28;20184;-66
2023/10/26 12:19:52;;;;;;;10.57;6.40;;;12.70;99.90;;;;;;4910180;28;20591;-66
2023/10/26 12:22:19;;;;;;;10.87;6.73;;;12.80;99.90;;;;;;4903212;28;20211;-66
2023/10/26 12:24:44;;;;;;;9.27;6.00;;;12.90;99.90;;;;;;4901952;28;20271;-66
2023/10/26 12:27:10;;;;;;;9.10;5.80;;;13.00;99.90;;;;;;4907632;28;20201;-66
2023/10/26 12:29:35;;;;;;;11.50;6.77;;;13.20;99.90;;;;;;4905092;28;20207;-67
2023/10/26 12:32:01;;;;;;;12.07;7.13;;;13.30;99.90;;;;;;4902517;28;20189;-66
2023/10/26 12:34:26;;;;;;;11.10;6.77;;;13.40;99.90;;;;;;4901757;28;20269;-66
2023/10/26 12:36:52;;;;;;;13.30;7.67;;;13.40;99.90;;;;;;4908705;28;20211;-67
2023/10/26 12:39:17;;;;;;;11.07;7.30;;;13.40;99.90;;;;;;4902523;28;20223;-67
2023/10/26 12:41:43;;;;;;;10.10;6.53;;;13.40;99.90;;;;;;4909993;28;20204;-66
2023/10/26 12:44:08;;;;;;;11.67;7.10;;;13.30;99.90;;;;;;4909477;28;20187;-66
2023/10/26 12:46:34;;;;;;;8.30;5.80;;;13.30;99.90;;;;;;4910251;28;20254;-67